createdAt,value
2019-03-06T00:04:19.179Z,13.22
2019-03-06T00:09:23.102Z,15.83
2019-03-06T00:14:26.646Z,17.00
2019-03-06T00:19:30.391Z,15.88
2019-03-06T00:24:33.952Z,15.48
2019-03-06T00:29:37.807Z,14.55
2019-03-06T00:34:41.350Z,15.98
2019-03-06T00:39:46.627Z,20.80
2019-03-06T00:44:50.201Z,17.57
2019-03-06T00:49:53.813Z,18.25
2019-03-06T00:54:57.400Z,17.65
2019-03-06T01:00:01.977Z,15.53
2019-03-06T01:05:07.967Z,17.60
2019-03-06T01:10:13.094Z,18.53
2019-03-06T01:15:17.864Z,38.83
2019-03-06T01:20:21.430Z,32.23
2019-03-06T01:25:25.463Z,17.57
2019-03-06T01:30:29.034Z,16.82
2019-03-06T01:35:34.160Z,28.12
2019-03-06T01:40:45.307Z,18.80
2019-03-06T01:45:48.844Z,17.60
2019-03-06T01:50:52.447Z,18.98
2019-03-06T01:55:56.043Z,18.15
2019-03-06T02:01:01.594Z,18.20
2019-03-06T02:06:05.542Z,19.17
2019-03-06T02:11:09.161Z,23.62
2019-03-06T02:16:12.723Z,25.10
2019-03-06T02:21:16.664Z,21.37
2019-03-06T02:26:20.208Z,21.50
2019-03-06T02:31:23.826Z,21.20
2019-03-06T02:36:27.372Z,21.57
2019-03-06T02:41:30.943Z,20.82
2019-03-06T02:46:34.490Z,22.20
2019-03-06T02:51:38.090Z,22.87
2019-03-06T02:56:41.611Z,26.87
2019-03-06T03:01:53.525Z,26.17
2019-03-06T03:07:04.668Z,24.45
2019-03-06T03:12:08.533Z,22.80
2019-03-06T03:17:12.057Z,23.00
2019-03-06T03:22:15.605Z,19.35
2019-03-06T03:27:19.150Z,20.63
2019-03-06T03:32:22.727Z,22.55
2019-03-06T03:37:26.290Z,26.15
2019-03-06T03:42:29.825Z,24.52
2019-03-06T03:47:33.397Z,28.55
2019-03-06T03:52:36.922Z,32.65
2019-03-06T03:57:40.502Z,27.30
2019-03-06T04:02:44.387Z,26.52
2019-03-06T04:07:48.301Z,29.95
2019-03-06T04:12:51.855Z,43.63
2019-03-06T04:17:55.848Z,55.60
2019-03-06T04:22:59.402Z,30.62
2019-03-06T04:28:02.984Z,20.12
2019-03-06T04:33:06.523Z,23.35
2019-03-06T04:38:10.099Z,73.05
2019-03-06T04:43:13.679Z,82.15
2019-03-06T04:48:17.233Z,30.82
2019-03-06T04:53:20.790Z,28.02
2019-03-06T04:58:26.258Z,27.00
2019-03-06T05:03:29.660Z,27.00
2019-03-06T05:08:33.227Z,25.12
2019-03-06T05:13:36.799Z,28.93
2019-03-06T05:18:41.916Z,74.95
2019-03-06T05:23:45.521Z,31.50
2019-03-06T05:28:49.074Z,32.00
2019-03-06T05:33:52.628Z,35.73
2019-03-06T05:39:09.615Z,34.67
2019-03-06T05:44:13.169Z,30.88
2019-03-06T05:49:16.757Z,46.37
2019-03-06T05:54:20.358Z,34.85
2019-03-06T05:59:23.904Z,33.90
2019-03-06T06:04:27.451Z,35.48
2019-03-06T06:09:31.003Z,32.98
2019-03-06T06:14:34.550Z,30.77
2019-03-06T06:19:38.129Z,30.72
2019-03-06T06:24:43.144Z,26.15
2019-03-06T06:29:46.788Z,27.77
2019-03-06T06:34:50.347Z,30.92
2019-03-06T06:39:53.912Z,33.88
2019-03-06T06:44:57.452Z,29.07
2019-03-06T06:50:01.041Z,23.23
2019-03-06T06:55:23.491Z,25.72
2019-03-06T07:00:52.208Z,26.20
2019-03-06T07:05:57.353Z,25.23
2019-03-06T07:11:08.450Z,25.17
2019-03-06T07:16:25.458Z,26.05
2019-03-06T07:21:30.644Z,24.82
2019-03-06T07:26:38.852Z,24.35
2019-03-06T07:31:43.975Z,27.40
2019-03-06T07:36:58.147Z,29.55
2019-03-06T07:42:03.242Z,28.12
2019-03-06T07:47:11.339Z,27.70
2019-03-06T07:52:33.368Z,26.70
2019-03-06T07:57:57.859Z,28.23
2019-03-06T08:03:06.310Z,25.88
2019-03-06T08:08:09.912Z,24.27
2019-03-06T08:13:16.051Z,24.15
2019-03-06T08:18:21.130Z,21.45
2019-03-06T08:23:38.258Z,25.92
2019-03-06T08:28:41.821Z,25.70
2019-03-06T08:33:45.605Z,27.37
2019-03-06T08:38:49.143Z,23.83
2019-03-06T08:43:52.998Z,25.27
2019-03-06T08:48:58.117Z,27.77
2019-03-06T08:54:06.442Z,29.05
2019-03-06T08:59:27.717Z,23.87
2019-03-06T09:04:32.845Z,28.52
2019-03-06T09:09:37.982Z,25.17
2019-03-06T09:14:55.149Z,21.93
2019-03-06T09:20:00.519Z,21.27
2019-03-06T09:25:08.407Z,21.95
2019-03-06T09:30:16.245Z,22.27
2019-03-06T09:35:23.659Z,22.57
2019-03-06T09:40:43.694Z,22.35
2019-03-06T09:45:54.925Z,20.60
2019-03-06T09:51:16.311Z,17.02
2019-03-06T09:56:24.562Z,18.95
2019-03-06T10:01:41.580Z,20.55
2019-03-06T10:06:52.573Z,20.30
2019-03-06T10:11:57.689Z,21.45
2019-03-06T10:17:17.981Z,21.52
2019-03-06T10:22:21.534Z,20.57
2019-03-06T10:27:25.117Z,20.35
2019-03-06T10:32:28.687Z,56.92
2019-03-06T10:37:32.236Z,20.65
2019-03-06T10:42:35.816Z,19.45
2019-03-06T10:47:39.442Z,20.37
2019-03-06T10:52:43.026Z,17.55
2019-03-06T10:57:46.581Z,19.75
2019-03-06T11:02:50.133Z,20.90
2019-03-06T11:07:54.324Z,14.43
2019-03-06T11:12:57.899Z,18.45
2019-03-06T11:18:01.495Z,18.62
2019-03-06T11:23:11.684Z,15.80
2019-03-06T11:28:15.225Z,17.70
2019-03-06T11:33:19.369Z,17.27
2019-03-06T11:38:23.030Z,18.15
2019-03-06T11:43:26.588Z,18.95
2019-03-06T11:48:30.142Z,16.90
2019-03-06T11:53:33.696Z,21.52
2019-03-06T11:58:37.247Z,21.05
2019-03-06T12:03:40.951Z,18.42
2019-03-06T12:08:45.767Z,18.82
2019-03-06T12:13:49.703Z,16.60
2019-03-06T12:18:53.265Z,15.70
2019-03-06T12:23:57.025Z,14.90
2019-03-06T12:29:00.737Z,15.75
2019-03-06T12:34:05.211Z,13.72
2019-03-06T12:39:08.763Z,15.80
2019-03-06T12:44:12.389Z,12.63
2019-03-06T12:49:15.963Z,12.37
2019-03-06T12:54:19.545Z,10.10
2019-03-06T12:59:23.079Z,9.40
2019-03-06T13:04:26.682Z,10.75
2019-03-06T13:09:30.239Z,9.53
2019-03-06T13:14:33.861Z,9.35
2019-03-06T13:19:37.418Z,8.58
2019-03-06T13:24:40.959Z,10.50
2019-03-06T13:29:45.567Z,11.55
2019-03-06T13:34:50.983Z,14.15
2019-03-06T13:39:54.630Z,11.63
2019-03-06T13:44:58.195Z,10.58
2019-03-06T13:50:01.778Z,12.53
2019-03-06T13:55:16.292Z,12.28
2019-03-06T14:00:20.879Z,14.63
2019-03-06T14:05:24.727Z,14.75
2019-03-06T14:10:29.671Z,39.75
2019-03-06T14:15:33.271Z,16.32
2019-03-06T14:20:36.848Z,15.23
2019-03-06T14:25:40.455Z,14.43
2019-03-06T14:30:44.241Z,15.78
2019-03-06T14:35:47.809Z,11.78
2019-03-06T14:40:51.352Z,12.10
2019-03-06T14:45:55.137Z,14.15
2019-03-06T14:50:58.969Z,7.65
2019-03-06T14:56:02.502Z,7.35
2019-03-06T15:01:06.065Z,7.80
2019-03-06T15:06:09.628Z,6.90
2019-03-06T15:11:13.223Z,9.57
2019-03-06T15:16:16.780Z,10.30
2019-03-06T15:21:20.361Z,10.85
2019-03-06T15:26:23.887Z,11.97
2019-03-06T15:31:27.448Z,13.85
2019-03-06T15:36:32.698Z,18.70
2019-03-06T15:41:36.343Z,17.52
2019-03-06T15:46:39.934Z,16.77
2019-03-06T15:51:43.486Z,26.68
2019-03-06T15:56:47.158Z,38.48
2019-03-06T16:01:50.700Z,22.53
2019-03-06T16:06:54.417Z,63.42
2019-03-06T16:11:58.047Z,18.10
2019-03-06T16:17:01.583Z,27.62
2019-03-06T16:22:05.124Z,35.70
2019-03-06T16:27:08.769Z,23.60
2019-03-06T16:32:12.299Z,96.42
2019-03-06T16:37:15.866Z,32.90
2019-03-06T16:42:19.434Z,44.00
2019-03-06T16:47:23.003Z,61.30
2019-03-06T16:52:26.526Z,44.25
2019-03-06T16:57:30.132Z,41.80
2019-03-06T17:02:34.344Z,34.80
2019-03-06T17:07:38.464Z,31.25
2019-03-06T17:12:42.704Z,34.40
2019-03-06T17:17:47.016Z,61.13
2019-03-06T17:22:51.377Z,42.53
2019-03-06T17:27:55.414Z,30.85
2019-03-06T17:33:10.353Z,85.77
2019-03-06T17:38:15.696Z,226.42
2019-03-06T17:43:19.949Z,102.02
2019-03-06T17:48:24.087Z,48.87
2019-03-06T17:53:28.158Z,41.83
2019-03-06T17:58:32.221Z,39.47
2019-03-06T18:03:40.494Z,41.73
2019-03-06T18:08:44.631Z,49.38
2019-03-06T18:13:48.710Z,66.45
2019-03-06T18:18:52.914Z,42.35
2019-03-06T18:23:57.878Z,52.13
2019-03-06T18:29:01.974Z,49.70
2019-03-06T18:34:06.309Z,49.03
2019-03-06T18:39:12.081Z,42.48
2019-03-06T18:44:16.292Z,39.90
2019-03-06T18:49:20.647Z,62.50
2019-03-06T18:54:24.494Z,47.10
2019-03-06T18:59:28.631Z,48.52
2019-03-06T19:04:32.861Z,47.83
2019-03-06T19:09:37.071Z,103.70
2019-03-06T19:14:42.489Z,62.20
2019-03-06T19:19:46.878Z,72.08
2019-03-06T19:24:51.053Z,46.50
2019-03-06T19:29:55.279Z,47.43
2019-03-06T19:34:59.844Z,43.05
2019-03-06T19:40:04.513Z,47.78
2019-03-06T19:45:22.783Z,48.40
2019-03-06T19:50:27.512Z,48.13
2019-03-06T19:55:31.711Z,43.08
2019-03-06T20:00:35.949Z,43.13
2019-03-06T20:05:40.782Z,42.20
2019-03-06T20:10:45.515Z,48.17
2019-03-06T20:15:49.701Z,40.33
2019-03-06T20:20:53.932Z,40.35
2019-03-06T20:25:58.245Z,39.83
2019-03-06T20:31:02.431Z,45.10
2019-03-06T20:36:06.990Z,39.38
2019-03-06T20:41:11.137Z,42.05
2019-03-06T20:46:16.489Z,40.10
2019-03-06T20:51:20.601Z,41.03
2019-03-06T20:56:24.594Z,44.93
2019-03-06T21:01:31.616Z,46.40
2019-03-06T21:06:36.474Z,35.83
2019-03-06T21:11:40.643Z,38.58
2019-03-06T21:16:44.687Z,48.85
2019-03-06T21:21:48.914Z,41.50
2019-03-06T21:26:53.103Z,38.40
2019-03-06T21:31:57.546Z,35.10
2019-03-06T21:37:01.687Z,34.60
2019-03-06T21:42:05.936Z,29.32
2019-03-06T21:47:10.010Z,32.60
2019-03-06T21:52:13.967Z,31.17
2019-03-06T21:57:17.905Z,29.27
2019-03-06T22:02:22.053Z,36.60
2019-03-06T22:07:26.077Z,37.88
2019-03-06T22:12:29.820Z,33.20
2019-03-06T22:17:33.939Z,35.15
2019-03-06T22:22:37.919Z,36.33
2019-03-06T22:27:41.734Z,37.58
2019-03-06T22:32:45.495Z,36.73
2019-03-06T22:37:49.367Z,37.33
2019-03-06T22:42:53.325Z,34.58
2019-03-06T22:47:57.122Z,33.33
2019-03-06T22:53:00.901Z,33.33
2019-03-06T22:58:05.114Z,33.18
2019-03-06T23:03:08.925Z,32.88
2019-03-06T23:08:12.654Z,34.83
2019-03-06T23:13:16.420Z,36.90
2019-03-06T23:18:20.345Z,38.90
2019-03-06T23:23:24.276Z,33.50
2019-03-06T23:28:28.014Z,31.00
2019-03-06T23:33:31.932Z,30.55
2019-03-06T23:38:35.836Z,31.90
2019-03-06T23:43:39.578Z,30.08
2019-03-06T23:48:43.377Z,34.25
2019-03-06T23:53:48.744Z,32.95
2019-03-06T23:58:52.525Z,32.00
